Time;durP1;ratioP1;P1;durP2;ratioP2;P2;SDS_P1;SDS_P2;PMS_P1;PMS_P2;Temp;Humidity;BMP_temperature;BMP_pressure;BME280_temperature;BME280_humidity;BME280_pressure;Samples;Min_cycle;Max_cycle;Signal;HPM_P1;HPM_P2
2022/03/19 00:00:42;;;;;;;4.53;2.10;;;7.70;93.90;;;;;;5030097;28;20212;-69
2022/03/19 00:03:08;;;;;;;4.40;2.60;;;7.70;94.10;;;;;;5021492;28;20448;-69
2022/03/19 00:05:34;;;;;;;4.80;2.33;;;7.70;94.00;;;;;;5008734;28;20613;-72
2022/03/19 00:08:01;;;;;;;3.30;2.60;;;7.60;94.00;;;;;;5036002;28;20223;-69
2022/03/19 00:10:27;;;;;;;2.90;2.13;;;7.60;94.10;;;;;;5040540;28;20216;-68
2022/03/19 00:12:53;;;;;;;2.23;1.70;;;7.60;94.10;;;;;;5040650;28;20498;-69
2022/03/19 00:15:19;;;;;;;4.47;2.10;;;7.60;94.20;;;;;;5031195;28;20719;-72
2022/03/19 00:17:45;;;;;;;2.83;2.03;;;7.60;94.20;;;;;;5046426;28;20295;-70
2022/03/19 00:20:11;;;;;;;3.47;1.90;;;7.60;94.30;;;;;;5011559;28;20540;-70
2022/03/19 00:22:38;;;;;;;2.83;2.17;;;7.50;94.30;;;;;;5026738;28;20302;-70
2022/03/19 00:25:05;;;;;;;4.10;2.17;;;7.50;94.30;;;;;;5039845;28;20465;-69
2022/03/19 00:27:31;;;;;;;2.97;1.80;;;7.50;94.40;;;;;;5039764;28;20442;-68
2022/03/19 00:29:56;;;;;;;4.30;2.20;;;7.40;94.40;;;;;;5042203;28;20839;-71
2022/03/19 00:32:22;;;;;;;3.50;2.10;;;7.40;94.80;;;;;;5043860;28;20228;-66
2022/03/19 00:34:48;;;;;;;4.70;1.70;;;7.40;94.40;;;;;;5036648;28;20699;-69
2022/03/19 00:37:14;;;;;;;2.30;1.97;;;7.40;94.50;;;;;;5028003;28;20220;-69
2022/03/19 00:39:39;;;;;;;2.33;1.70;;;7.40;94.50;;;;;;5030741;28;20221;-70
2022/03/19 00:42:05;;;;;;;3.50;2.20;;;7.40;94.60;;;;;;5028660;28;20474;-71
2022/03/19 00:44:30;;;;;;;7.63;2.17;;;7.30;94.50;;;;;;5033728;28;20274;-68
2022/03/19 00:46:56;;;;;;;6.57;2.30;;;7.30;94.60;;;;;;5012873;28;20221;-69
2022/03/19 00:49:22;;;;;;;2.13;1.87;;;7.30;94.60;;;;;;5015202;28;20728;-68
2022/03/19 00:51:47;;;;;;;6.10;2.30;;;7.30;94.70;;;;;;5048425;28;20578;-72
2022/03/19 00:54:15;;;;;;;2.43;2.23;;;7.30;94.70;;;;;;5040126;28;20250;-70
2022/03/19 00:56:42;;;;;;;4.87;2.27;;;7.20;94.70;;;;;;5048954;28;20221;-69
2022/03/19 00:59:08;;;;;;;3.80;1.97;;;7.20;94.70;;;;;;5032480;28;20465;-69
2022/03/19 01:01:35;;;;;;;2.03;1.67;;;7.30;94.80;;;;;;5027995;28;20470;-69
2022/03/19 01:04:02;;;;;;;4.10;2.30;;;7.20;94.80;;;;;;5041850;28;20224;-69
2022/03/19 01:06:28;;;;;;;2.20;1.87;;;7.20;94.90;;;;;;5038094;28;20521;-69
2022/03/19 01:08:53;;;;;;;2.47;2.23;;;7.20;94.90;;;;;;5042929;28;20538;-67
2022/03/19 01:11:23;;;;;;;2.80;2.00;;;7.20;94.90;;;;;;5042379;28;20298;-68
2022/03/19 01:13:50;;;;;;;7.60;2.20;;;7.20;95.00;;;;;;5044512;28;20228;-69
2022/03/19 01:16:18;;;;;;;3.80;2.13;;;7.20;95.00;;;;;;5038422;28;20451;-69
2022/03/19 01:18:45;;;;;;;1.73;1.60;;;7.20;95.10;;;;;;5040694;28;20830;-69
2022/03/19 01:21:11;;;;;;;5.03;2.03;;;7.20;95.10;;;;;;5041536;28;20962;-68
2022/03/19 01:23:36;;;;;;;10.83;2.40;;;7.10;95.10;;;;;;5046649;28;20464;-69
2022/03/19 01:26:02;;;;;;;3.07;1.67;;;7.10;95.10;;;;;;5040435;28;20320;-71
2022/03/19 01:28:28;;;;;;;2.30;1.80;;;7.10;95.20;;;;;;5037763;28;20651;-71
2022/03/19 01:30:54;;;;;;;2.80;1.97;;;7.10;95.20;;;;;;5061660;28;20451;-67
2022/03/19 01:33:19;;;;;;;3.10;1.93;;;7.10;95.20;;;;;;5039991;28;20221;-69
2022/03/19 01:35:45;;;;;;;4.53;1.83;;;7.10;95.30;;;;;;5024301;28;20711;-72
2022/03/19 01:38:11;;;;;;;3.93;1.73;;;7.10;95.40;;;;;;5041311;28;20706;-68
2022/03/19 01:40:36;;;;;;;4.70;2.27;;;7.10;95.40;;;;;;5042771;28;20224;-69
2022/03/19 01:43:02;;;;;;;4.93;2.47;;;7.00;95.40;;;;;;5044458;28;20235;-69
2022/03/19 01:45:29;;;;;;;3.10;1.67;;;7.00;95.40;;;;;;5031763;28;20745;-69
2022/03/19 01:47:55;;;;;;;1.97;1.60;;;7.00;95.50;;;;;;5042485;28;20988;-67
2022/03/19 01:50:22;;;;;;;8.90;2.30;;;7.00;95.60;;;;;;5034866;28;20450;-69
2022/03/19 01:52:49;;;;;;;2.20;1.40;;;7.00;95.60;;;;;;5029266;28;20467;-68
2022/03/19 01:55:18;;;;;;;2.40;1.60;;;7.00;95.60;;;;;;5039116;28;20463;-69
2022/03/19 01:57:45;;;;;;;2.67;2.17;;;7.00;95.60;;;;;;5034933;28;20468;-69
2022/03/19 02:00:17;;;;;;;1.40;1.30;;;7.00;95.70;;;;;;5024084;28;20467;-69
2022/03/19 02:02:44;;;;;;;6.40;2.37;;;7.00;95.70;;;;;;5021195;28;20970;-69
2022/03/19 02:05:16;;;;;;;2.80;2.40;;;7.00;95.80;;;;;;5045558;28;20579;-70
2022/03/19 02:07:43;;;;;;;2.77;1.80;;;7.00;95.80;;;;;;5030565;28;21017;-69
2022/03/19 02:10:11;;;;;;;1.80;1.70;;;7.00;95.80;;;;;;5031698;28;20467;-69
2022/03/19 02:12:37;;;;;;;2.43;2.03;;;7.00;95.90;;;;;;5032838;28;20448;-69
2022/03/19 02:15:05;;;;;;;4.40;1.90;;;7.00;95.90;;;;;;5029726;28;20478;-70
2022/03/19 02:17:31;;;;;;;4.33;1.90;;;7.00;95.90;;;;;;5062043;28;20528;-69
2022/03/19 02:19:57;;;;;;;3.60;2.03;;;7.00;95.90;;;;;;5048827;28;20483;-67
2022/03/19 02:22:27;;;;;;;5.67;2.23;;;7.00;95.90;;;;;;5024449;28;20973;-68
2022/03/19 02:27:38;;;;;;;4.80;2.13;;;7.00;95.90;;;;;;5021250;28;20947;-69
2022/03/19 02:30:06;;;;;;;2.37;2.17;;;7.00;96.10;;;;;;5023121;28;20570;-71
2022/03/19 02:32:34;;;;;;;6.17;2.23;;;7.00;96.10;;;;;;5024224;28;20453;-70
2022/03/19 02:35:00;;;;;;;12.10;2.30;;;7.00;96.10;;;;;;5037679;28;20467;-70
2022/03/19 02:37:36;;;;;;;3.93;2.10;;;7.00;96.10;;;;;;5028098;28;20470;-70
2022/03/19 02:40:02;;;;;;;3.00;1.90;;;7.00;96.10;;;;;;5040615;28;20531;-71
2022/03/19 02:42:28;;;;;;;2.10;1.90;;;7.00;96.10;;;;;;5027322;28;20530;-69
2022/03/19 02:44:54;;;;;;;7.70;2.17;;;7.00;96.10;;;;;;5043044;28;20554;-71
2022/03/19 02:47:19;;;;;;;4.27;2.70;;;7.00;96.20;;;;;;5049021;28;20247;-70
2022/03/19 02:49:45;;;;;;;2.67;1.93;;;7.00;96.20;;;;;;5042889;28;20274;-73
2022/03/19 02:52:11;;;;;;;3.37;2.10;;;7.00;96.20;;;;;;5024849;28;20265;-70
2022/03/19 02:54:37;;;;;;;4.73;2.63;;;7.00;96.20;;;;;;5025402;28;20236;-69
2022/03/19 02:57:03;;;;;;;4.33;2.00;;;7.00;96.20;;;;;;5023474;28;20217;-69
2022/03/19 02:59:34;;;;;;;2.90;2.00;;;7.00;96.20;;;;;;5044773;28;20509;-69
2022/03/19 03:02:05;;;;;;;8.13;3.10;;;7.00;96.20;;;;;;5036628;28;20217;-70
2022/03/19 03:04:31;;;;;;;3.53;2.47;;;7.00;96.20;;;;;;5027328;28;20468;-68
2022/03/19 03:07:00;;;;;;;4.60;3.07;;;7.00;96.20;;;;;;5035684;28;20521;-69
2022/03/19 03:09:27;;;;;;;6.07;2.30;;;7.00;96.30;;;;;;5028914;28;20455;-69
2022/03/19 03:11:54;;;;;;;3.47;2.63;;;7.00;96.30;;;;;;5034581;28;20515;-70
2022/03/19 03:14:20;;;;;;;3.67;2.20;;;7.00;96.40;;;;;;5031670;28;20479;-68
2022/03/19 03:16:49;;;;;;;7.33;2.87;;;7.00;96.40;;;;;;5042879;28;20449;-70
2022/03/19 03:19:16;;;;;;;5.70;2.40;;;6.90;96.30;;;;;;5040235;28;20447;-68
2022/03/19 03:21:42;;;;;;;5.60;2.60;;;6.90;96.70;;;;;;5029597;28;20837;-70
2022/03/19 03:24:09;;;;;;;4.07;2.07;;;6.90;96.40;;;;;;5030122;28;20467;-69
2022/03/19 03:26:35;;;;;;;4.90;2.60;;;6.90;96.50;;;;;;5042433;28;20303;-69
2022/03/19 03:29:01;;;;;;;3.63;2.03;;;6.90;96.50;;;;;;5020307;28;20469;-69
2022/03/19 03:31:27;;;;;;;4.80;2.60;;;6.90;96.50;;;;;;5045163;28;20448;-69
2022/03/19 03:33:54;;;;;;;3.43;2.40;;;6.90;96.60;;;;;;5048593;28;20224;-69
2022/03/19 03:36:20;;;;;;;3.90;2.23;;;6.90;96.50;;;;;;5043084;28;20485;-71
2022/03/19 03:38:46;;;;;;;6.43;3.00;;;6.90;96.50;;;;;;5016038;28;20451;-70
2022/03/19 03:41:12;;;;;;;2.70;2.30;;;6.90;96.60;;;;;;5041788;28;20869;-70
2022/03/19 03:43:37;;;;;;;4.23;1.90;;;6.80;96.60;;;;;;5040516;28;20293;-68
2022/03/19 03:46:04;;;;;;;2.77;2.20;;;6.80;96.60;;;;;;5048868;28;20220;-69
2022/03/19 03:48:31;;;;;;;4.37;2.13;;;6.80;96.80;;;;;;5041859;28;20331;-69
2022/03/19 03:50:57;;;;;;;5.23;2.33;;;6.80;96.90;;;;;;5034187;28;20974;-69
2022/03/19 03:53:25;;;;;;;3.17;2.40;;;6.80;96.90;;;;;;5014862;28;20456;-70
2022/03/19 03:55:51;;;;;;;2.93;2.40;;;6.80;97.00;;;;;;5021711;28;20554;-70
2022/03/19 03:58:16;;;;;;;4.20;1.73;;;6.70;97.00;;;;;;5044645;28;20534;-69
2022/03/19 04:00:42;;;;;;;5.30;2.20;;;6.70;97.00;;;;;;5037332;28;20228;-69
2022/03/19 04:03:08;;;;;;;3.63;2.10;;;6.70;97.10;;;;;;5032700;28;20228;-68
2022/03/19 04:05:33;;;;;;;5.13;2.70;;;6.60;97.10;;;;;;5038901;28;20279;-71
2022/03/19 04:08:03;;;;;;;5.80;2.77;;;6.60;97.20;;;;;;5022080;28;20223;-70
2022/03/19 04:10:31;;;;;;;3.67;2.10;;;6.60;97.20;;;;;;5027336;28;20224;-70
2022/03/19 04:12:59;;;;;;;2.63;2.43;;;6.60;97.20;;;;;;5023886;28;20459;-69
2022/03/19 04:15:25;;;;;;;8.20;3.13;;;6.60;97.20;;;;;;5013072;28;20468;-70
2022/03/19 04:17:51;;;;;;;4.97;2.33;;;6.60;97.30;;;;;;5039382;28;20481;-70
2022/03/19 04:20:18;;;;;;;4.10;2.17;;;6.60;97.30;;;;;;5028009;28;20471;-70
2022/03/19 04:22:47;;;;;;;3.00;2.40;;;6.60;97.40;;;;;;5039785;28;20224;-74
2022/03/19 04:25:14;;;;;;;4.50;2.30;;;6.50;97.30;;;;;;5023471;28;20844;-68
2022/03/19 04:27:40;;;;;;;5.43;2.70;;;6.50;97.40;;;;;;5050019;28;20462;-70
2022/03/19 04:30:07;;;;;;;5.20;2.90;;;6.50;97.40;;;;;;5040091;28;20467;-70
2022/03/19 04:32:48;;;;;;;4.03;2.10;;;6.50;97.40;;;;;;5030758;28;20462;-71
2022/03/19 04:38:01;;;;;;;3.13;1.80;;;6.50;97.30;;;;;;5036375;28;21021;-72
2022/03/19 04:40:27;;;;;;;3.50;2.00;;;6.50;97.40;;;;;;5037497;28;20446;-71
2022/03/19 04:42:54;;;;;;;4.60;2.17;;;6.50;97.30;;;;;;5031640;28;20478;-69
2022/03/19 04:45:20;;;;;;;8.20;2.17;;;6.50;97.40;;;;;;5033793;28;20557;-68
2022/03/19 04:47:45;;;;;;;3.50;2.40;;;6.50;97.40;;;;;;5029056;28;20472;-69
2022/03/19 04:50:11;;;;;;;2.30;2.10;;;6.50;97.40;;;;;;5038122;28;20465;-71
2022/03/19 04:52:38;;;;;;;2.60;1.70;;;6.50;97.50;;;;;;5051135;28;20235;-70
2022/03/19 04:55:04;;;;;;;3.20;2.03;;;6.50;97.50;;;;;;5033656;28;20233;-68
2022/03/19 04:57:30;;;;;;;7.90;2.00;;;6.50;97.60;;;;;;5023857;28;20470;-69
2022/03/19 04:59:58;;;;;;;4.70;2.30;;;6.50;97.60;;;;;;5024741;28;20447;-70
2022/03/19 05:02:24;;;;;;;4.00;1.93;;;6.40;97.60;;;;;;5019353;28;20489;-70
2022/03/19 05:04:52;;;;;;;6.00;2.20;;;6.50;97.60;;;;;;5036749;28;20992;-73
2022/03/19 05:07:21;;;;;;;3.93;2.03;;;6.40;97.60;;;;;;5024480;28;20475;-74
2022/03/19 05:12:38;;;;;;;2.70;2.00;;;6.40;97.60;;;;;;5033483;28;20504;-68
2022/03/19 05:15:05;;;;;;;4.03;2.30;;;6.40;97.60;;;;;;5043701;28;20553;-69
2022/03/19 05:17:31;;;;;;;3.20;2.10;;;6.40;97.60;;;;;;5015109;28;21021;-69
2022/03/19 05:19:56;;;;;;;7.20;2.50;;;6.40;97.60;;;;;;5037876;28;20452;-70
2022/03/19 05:22:22;;;;;;;3.40;2.37;;;6.40;97.60;;;;;;5029244;28;20232;-73
2022/03/19 05:24:48;;;;;;;2.73;1.70;;;6.40;97.60;;;;;;5037913;28;20256;-70
2022/03/19 05:27:13;;;;;;;5.00;2.67;;;6.40;97.70;;;;;;5042562;28;20306;-68
2022/03/19 05:29:39;;;;;;;4.07;2.00;;;6.40;97.70;;;;;;5022161;28;20304;-69
2022/03/19 05:32:06;;;;;;;1.60;1.50;;;6.40;97.70;;;;;;5033462;28;20227;-68
2022/03/19 05:34:32;;;;;;;4.37;2.20;;;6.30;97.60;;;;;;5031727;28;20228;-69
2022/03/19 05:37:02;;;;;;;5.30;2.10;;;6.30;97.70;;;;;;5026383;28;20452;-72
2022/03/19 05:39:28;;;;;;;2.27;1.93;;;6.30;97.60;;;;;;5037064;28;20228;-68
2022/03/19 05:41:54;;;;;;;5.97;2.00;;;6.30;97.60;;;;;;5037441;28;20491;-68
2022/03/19 05:44:20;;;;;;;2.20;1.53;;;6.30;97.60;;;;;;5031984;28;20884;-68
2022/03/19 05:46:47;;;;;;;4.13;2.23;;;6.30;97.60;;;;;;5036802;28;20498;-73
2022/03/19 05:49:13;;;;;;;3.97;2.87;;;6.30;97.60;;;;;;5016669;28;20214;-68
2022/03/19 05:51:39;;;;;;;3.23;2.23;;;6.30;97.60;;;;;;5038863;28;20978;-68
2022/03/19 05:54:05;;;;;;;4.60;2.30;;;6.30;97.70;;;;;;5029758;28;20461;-71
2022/03/19 05:56:31;;;;;;;4.73;1.90;;;6.30;97.70;;;;;;5035406;28;20264;-71
2022/03/19 05:58:58;;;;;;;4.20;2.13;;;6.30;97.70;;;;;;5030996;28;20463;-71
2022/03/19 06:01:28;;;;;;;1.50;1.40;;;6.20;97.80;;;;;;5030501;28;20208;-69
2022/03/19 06:03:54;;;;;;;4.43;1.97;;;6.20;98.10;;;;;;5031503;28;20971;-72
2022/03/19 06:06:20;;;;;;;3.10;1.77;;;6.20;97.90;;;;;;5014427;28;20979;-68
2022/03/19 06:08:46;;;;;;;2.90;1.97;;;6.20;97.90;;;;;;5013334;28;20504;-73
2022/03/19 06:11:11;;;;;;;3.40;1.83;;;6.20;97.90;;;;;;5028986;28;20228;-69
2022/03/19 06:13:37;;;;;;;2.37;1.87;;;6.20;98.00;;;;;;5056228;28;20216;-71
2022/03/19 06:16:03;;;;;;;3.20;1.90;;;6.20;98.10;;;;;;5033446;28;20240;-69
2022/03/19 06:18:29;;;;;;;10.73;2.50;;;6.20;98.10;;;;;;5041886;28;20216;-67
2022/03/19 06:20:56;;;;;;;1.60;1.50;;;6.10;98.30;;;;;;5041762;28;20227;-69
2022/03/19 06:23:22;;;;;;;2.50;1.40;;;6.10;98.30;;;;;;5045985;28;20530;-67
2022/03/19 06:25:49;;;;;;;5.60;2.50;;;6.10;98.30;;;;;;5046510;28;20997;-71
2022/03/19 06:28:15;;;;;;;3.13;1.77;;;6.10;98.40;;;;;;5037719;28;20459;-70
2022/03/19 06:30:41;;;;;;;1.87;1.70;;;6.10;98.50;;;;;;5029671;28;20444;-71
2022/03/19 06:33:07;;;;;;;3.10;1.80;;;6.10;98.70;;;;;;5032862;28;20839;-71
2022/03/19 06:38:20;;;;;;;1.77;1.50;;;6.10;98.90;;;;;;5016394;28;20466;-69
2022/03/19 06:40:45;;;;;;;5.30;1.70;;;6.10;99.10;;;;;;5014659;28;20467;-69
2022/03/19 06:43:11;;;;;;;2.40;1.73;;;6.10;99.10;;;;;;5024041;28;20226;-73
2022/03/19 06:45:37;;;;;;;11.47;1.93;;;6.10;99.30;;;;;;5029293;28;20223;-70
2022/03/19 06:48:03;;;;;;;5.30;1.70;;;6.10;99.40;;;;;;5024123;28;20244;-70
2022/03/19 06:50:29;;;;;;;5.70;2.60;;;6.10;99.30;;;;;;5027301;28;21034;-69
2022/03/19 06:52:54;;;;;;;2.50;1.90;;;6.20;99.70;;;;;;5034520;28;20554;-70
2022/03/19 06:55:20;;;;;;;6.23;2.30;;;6.20;99.50;;;;;;5026221;28;20224;-68
2022/03/19 06:57:46;;;;;;;4.10;2.37;;;6.20;99.60;;;;;;5031559;28;20335;-69
2022/03/19 07:00:12;;;;;;;3.23;1.90;;;6.20;99.60;;;;;;5026677;28;20290;-69
2022/03/19 07:02:49;;;;;;;5.80;2.50;;;6.30;99.80;;;;;;5038514;28;20308;-71
2022/03/19 07:05:25;;;;;;;4.60;2.07;;;6.30;99.80;;;;;;5030765;28;20522;-70
2022/03/19 07:07:53;;;;;;;2.90;2.07;;;6.40;99.90;;;;;;5025553;28;20539;-69
2022/03/19 07:10:19;;;;;;;5.20;2.10;;;6.40;99.90;;;;;;5044485;28;20471;-69
2022/03/19 07:12:45;;;;;;;6.83;2.90;;;6.40;99.90;;;;;;5028869;28;20975;-71
2022/03/19 07:15:19;;;;;;;3.67;2.97;;;6.50;99.90;;;;;;5042553;28;20499;-70
2022/03/19 07:17:45;;;;;;;2.97;1.90;;;6.50;99.90;;;;;;5025565;28;20509;-70
2022/03/19 07:20:14;;;;;;;4.40;1.90;;;6.50;99.90;;;;;;5027697;28;20963;-73
2022/03/19 07:22:50;;;;;;;5.50;2.67;;;6.60;99.90;;;;;;5017800;28;20450;-69
2022/03/19 07:25:17;;;;;;;6.50;2.30;;;6.60;99.90;;;;;;5022012;28;20447;-70
2022/03/19 07:27:43;;;;;;;3.90;2.73;;;6.70;99.90;;;;;;5029247;28;20509;-72
2022/03/19 07:30:10;;;;;;;10.50;2.43;;;6.70;99.90;;;;;;5022227;28;20495;-70
2022/03/19 07:32:36;;;;;;;9.13;2.87;;;6.80;99.90;;;;;;5031329;28;20542;-68
2022/03/19 07:35:01;;;;;;;2.07;1.87;;;6.80;99.90;;;;;;5034906;28;20539;-72
2022/03/19 07:37:28;;;;;;;3.53;2.40;;;6.90;99.90;;;;;;5036909;28;20610;-69
2022/03/19 07:39:56;;;;;;;9.07;2.73;;;6.90;99.90;;;;;;5038594;28;20216;-71
2022/03/19 07:42:21;;;;;;;6.50;2.93;;;7.00;99.90;;;;;;5012028;28;20458;-73
2022/03/19 07:44:48;;;;;;;4.03;2.83;;;7.00;99.90;;;;;;5023513;28;20453;-71
2022/03/19 07:47:15;;;;;;;4.67;3.17;;;7.10;99.90;;;;;;5037629;28;20224;-69
2022/03/19 07:49:41;;;;;;;8.03;3.20;;;7.20;99.90;;;;;;5018652;28;20461;-68
2022/03/19 07:52:10;;;;;;;2.60;2.30;;;7.20;99.90;;;;;;5041805;28;20529;-72
2022/03/19 07:54:36;;;;;;;5.77;3.73;;;7.20;99.90;;;;;;5026457;28;20499;-71
2022/03/19 07:57:06;;;;;;;4.47;2.57;;;7.30;99.90;;;;;;5045532;28;20836;-71
2022/03/19 07:59:32;;;;;;;4.70;2.50;;;7.40;99.90;;;;;;5024031;28;20456;-74
2022/03/19 08:01:58;;;;;;;6.30;4.03;;;7.40;99.90;;;;;;5029752;28;20463;-69
2022/03/19 08:04:24;;;;;;;6.70;3.77;;;7.50;99.90;;;;;;5024450;28;20470;-70
2022/03/19 08:06:54;;;;;;;7.33;3.80;;;7.50;99.90;;;;;;5047470;28;20447;-70
2022/03/19 08:09:21;;;;;;;5.47;3.17;;;7.60;99.90;;;;;;5027258;28;20221;-70
2022/03/19 08:11:47;;;;;;;6.83;3.27;;;7.60;99.90;;;;;;5019849;28;20456;-69
2022/03/19 08:14:15;;;;;;;5.80;4.23;;;7.70;99.90;;;;;;5033105;28;20467;-71
2022/03/19 08:16:42;;;;;;;6.60;3.57;;;7.70;99.90;;;;;;5034333;28;20478;-73
2022/03/19 08:19:09;;;;;;;6.70;3.70;;;7.80;99.90;;;;;;5034989;28;20443;-70
2022/03/19 08:21:34;;;;;;;9.90;4.20;;;7.80;99.90;;;;;;5029022;28;20516;-71
2022/03/19 08:24:00;;;;;;;6.03;3.87;;;7.90;99.90;;;;;;5031280;28;20458;-72
2022/03/19 08:26:26;;;;;;;8.03;3.73;;;8.00;99.90;;;;;;5027004;28;20204;-69
2022/03/19 08:28:52;;;;;;;6.63;4.27;;;8.00;99.90;;;;;;5023338;28;20286;-68
2022/03/19 08:31:17;;;;;;;13.43;6.73;;;8.00;99.90;;;;;;5027255;28;20208;-69
2022/03/19 08:33:44;;;;;;;18.77;9.27;;;8.10;99.90;;;;;;5025396;28;20227;-70
2022/03/19 08:36:09;;;;;;;15.50;7.00;;;8.20;99.90;;;;;;5023433;28;20639;-71
2022/03/19 08:41:20;;;;;;;6.30;4.30;;;8.20;99.90;;;;;;5025366;28;20223;-69
2022/03/19 08:43:45;;;;;;;7.20;4.47;;;8.50;99.90;;;;;;5025400;28;20555;-70
2022/03/19 08:46:11;;;;;;;5.67;3.90;;;8.70;99.90;;;;;;5026866;28;20562;-71
2022/03/19 08:48:37;;;;;;;7.60;4.13;;;9.10;99.60;;;;;;5041226;28;20216;-69
2022/03/19 08:53:49;;;;;;;6.20;3.90;;;8.90;99.90;;;;;;5024941;28;20290;-72
2022/03/19 08:56:14;;;;;;;7.37;4.10;;;8.80;99.80;;;;;;5025224;28;20501;-69
2022/03/19 08:58:40;;;;;;;6.00;3.70;;;8.80;99.90;;;;;;5025893;28;20451;-70
2022/03/19 09:01:06;;;;;;;7.87;4.10;;;8.80;99.90;;;;;;5029089;28;20227;-71
2022/03/19 09:03:32;;;;;;;4.27;3.83;;;8.80;99.90;;;;;;5026258;28;20221;-69
2022/03/19 09:05:58;;;;;;;7.70;3.57;;;8.80;99.90;;;;;;5027808;28;20578;-69
2022/03/19 09:08:25;;;;;;;6.80;4.47;;;8.80;99.90;;;;;;5031825;28;20450;-71
2022/03/19 09:10:52;;;;;;;7.80;4.17;;;8.80;99.90;;;;;;5029292;28;20456;-70
2022/03/19 09:13:17;;;;;;;5.43;3.33;;;8.90;99.90;;;;;;5029435;28;20474;-74
2022/03/19 09:15:43;;;;;;;6.30;3.60;;;9.00;99.90;;;;;;5032962;28;20475;-70
2022/03/19 09:18:09;;;;;;;4.50;3.60;;;9.00;99.90;;;;;;5024511;28;20720;-73
2022/03/19 09:20:34;;;;;;;6.80;3.93;;;9.00;99.70;;;;;;5047877;28;20223;-68
2022/03/19 09:23:02;;;;;;;7.87;3.60;;;9.00;99.80;;;;;;5029045;28;20260;-71
2022/03/19 09:25:28;;;;;;;7.50;3.30;;;9.00;99.80;;;;;;4996176;28;20239;-69
2022/03/19 09:27:54;;;;;;;5.13;3.53;;;9.00;99.70;;;;;;5032175;28;20450;-70
2022/03/19 09:30:19;;;;;;;4.93;3.13;;;9.10;99.60;;;;;;5012952;28;20465;-71
2022/03/19 09:32:45;;;;;;;6.63;3.23;;;9.10;99.60;;;;;;5026549;28;20231;-68
2022/03/19 09:35:11;;;;;;;5.37;3.90;;;9.20;99.70;;;;;;5028246;28;20243;-70
2022/03/19 09:37:36;;;;;;;5.10;3.40;;;9.20;99.70;;;;;;5034228;28;20579;-70
2022/03/19 09:40:03;;;;;;;5.13;3.77;;;9.40;99.90;;;;;;5031526;28;20227;-69
2022/03/19 09:42:28;;;;;;;4.07;3.57;;;9.40;99.40;;;;;;5029839;28;20703;-71
2022/03/19 09:44:55;;;;;;;6.90;3.67;;;9.40;99.80;;;;;;5037197;28;20458;-69
2022/03/19 09:47:21;;;;;;;8.27;3.53;;;9.50;99.50;;;;;;5032165;28;20220;-70
2022/03/19 09:49:46;;;;;;;3.90;3.00;;;9.50;99.40;;;;;;5034869;28;20894;-70
2022/03/19 09:52:13;;;;;;;6.10;3.30;;;9.50;99.40;;;;;;5030927;28;20220;-69
2022/03/19 09:54:39;;;;;;;4.10;2.93;;;9.60;99.50;;;;;;5048705;28;20291;-72
2022/03/19 09:57:05;;;;;;;4.13;3.30;;;9.60;99.10;;;;;;5030853;28;20563;-71
2022/03/19 09:59:31;;;;;;;5.27;4.03;;;9.60;99.20;;;;;;5034253;28;20558;-74
2022/03/19 10:01:57;;;;;;;5.20;3.40;;;9.70;99.40;;;;;;5030046;28;20687;-71
2022/03/19 10:04:23;;;;;;;5.80;3.80;;;9.90;99.20;;;;;;5031056;28;20220;-73
2022/03/19 10:09:47;;;;;;;5.07;4.10;;;10.00;98.60;;;;;;5048430;28;20455;-70
2022/03/19 10:12:20;;;;;;;6.30;3.67;;;10.10;98.40;;;;;;5031561;28;20454;-71
2022/03/19 10:14:54;;;;;;;5.93;3.53;;;10.20;98.20;;;;;;5032120;28;20525;-70
2022/03/19 10:17:33;;;;;;;7.00;3.53;;;10.20;98.10;;;;;;5030430;28;20513;-71
2022/03/19 10:20:10;;;;;;;7.50;3.43;;;10.20;97.40;;;;;;5030472;28;21152;-70
2022/03/19 10:22:40;;;;;;;5.87;3.47;;;10.20;97.90;;;;;;5029070;28;20540;-71
2022/03/19 10:25:10;;;;;;;4.70;3.60;;;10.30;98.10;;;;;;5031960;28;20574;-70
2022/03/19 10:27:39;;;;;;;5.23;3.13;;;10.30;97.70;;;;;;5025721;28;20469;-69
2022/03/19 10:30:15;;;;;;;5.00;3.63;;;10.30;97.90;;;;;;5031602;28;20466;-71
2022/03/19 10:32:41;;;;;;;6.90;3.50;;;10.30;97.60;;;;;;5028836;28;20471;-71
2022/03/19 10:35:23;;;;;;;6.60;3.90;;;10.30;97.70;;;;;;5033418;28;20467;-73
2022/03/19 10:37:48;;;;;;;3.33;2.90;;;10.30;97.70;;;;;;5028318;28;20546;-71
2022/03/19 10:40:14;;;;;;;5.17;3.67;;;10.40;97.70;;;;;;5029825;28;20606;-69
2022/03/19 10:42:41;;;;;;;5.20;4.20;;;10.40;97.40;;;;;;5028038;28;20291;-72
2022/03/19 10:45:09;;;;;;;5.57;3.63;;;10.40;97.50;;;;;;5026434;28;20220;-69
2022/03/19 10:47:40;;;;;;;6.20;4.40;;;10.40;97.20;;;;;;5023843;28;20994;-73
2022/03/19 10:50:06;;;;;;;12.37;3.80;;;10.30;97.20;;;;;;5033629;28;20459;-68
2022/03/19 10:52:34;;;;;;;12.60;3.43;;;10.30;97.30;;;;;;5028794;28;20543;-72
2022/03/19 10:55:04;;;;;;;5.40;3.80;;;10.40;97.60;;;;;;5040927;28;20237;-71
2022/03/19 10:57:30;;;;;;;4.90;4.03;;;10.50;97.40;;;;;;5025129;28;20471;-69
2022/03/19 10:59:56;;;;;;;6.10;3.93;;;10.40;97.00;;;;;;5028183;28;20455;-68
2022/03/19 11:02:26;;;;;;;4.00;3.47;;;10.40;97.10;;;;;;5033346;28;21051;-70
2022/03/19 11:04:52;;;;;;;6.27;4.40;;;10.40;97.20;;;;;;5030043;28;20258;-69
2022/03/19 11:07:22;;;;;;;5.93;4.00;;;10.40;97.10;;;;;;5026988;28;21073;-70
2022/03/19 11:09:51;;;;;;;4.30;3.90;;;10.50;97.10;;;;;;5030627;28;20213;-73
2022/03/19 11:12:21;;;;;;;3.73;2.97;;;10.50;96.70;;;;;;5040453;28;20468;-69
2022/03/19 11:14:50;;;;;;;5.73;3.20;;;10.60;96.30;;;;;;5010670;28;20494;-69
2022/03/19 11:17:24;;;;;;;4.10;3.30;;;10.60;96.50;;;;;;5024482;28;20459;-73
2022/03/19 11:19:52;;;;;;;3.60;3.20;;;10.60;96.60;;;;;;5021708;28;21048;-70
2022/03/19 11:22:18;;;;;;;7.50;3.13;;;10.60;96.10;;;;;;5036814;28;20478;-74
2022/03/19 11:25:24;;;;;;;4.30;3.60;;;10.60;95.80;;;;;;5029361;28;20458;-70
2022/03/19 11:27:58;;;;;;;3.27;2.80;;;10.50;95.20;;;;;;5021085;28;20443;-69
2022/03/19 11:30:25;;;;;;;4.67;3.00;;;10.50;95.30;;;;;;5018343;28;20467;-71
2022/03/19 11:33:08;;;;;;;4.50;3.23;;;10.60;95.40;;;;;;5022688;28;20532;-73
2022/03/19 11:35:36;;;;;;;5.20;3.23;;;10.60;95.30;;;;;;5021915;28;20536;-73
2022/03/19 11:38:16;;;;;;;4.70;3.70;;;10.70;94.90;;;;;;5027327;28;20474;-70
2022/03/19 11:40:46;;;;;;;3.60;2.73;;;10.70;94.80;;;;;;5020966;28;20474;-72
2022/03/19 11:43:17;;;;;;;5.10;2.73;;;10.80;94.70;;;;;;5017344;28;20750;-72
2022/03/19 11:45:56;;;;;;;5.80;3.60;;;10.80;94.30;;;;;;5024599;28;20552;-73
2022/03/19 11:48:46;;;;;;;3.50;3.00;;;10.70;94.40;;;;;;5043825;28;20474;-70
2022/03/19 11:51:24;;;;;;;4.40;3.97;;;10.80;94.70;;;;;;5026554;28;20468;-71
2022/03/19 11:53:51;;;;;;;5.73;3.97;;;10.80;94.70;;;;;;5023963;28;21171;-69
2022/03/19 11:56:19;;;;;;;6.73;3.63;;;10.80;94.60;;;;;;5025963;28;20612;-70
2022/03/19 11:58:46;;;;;;;5.17;4.20;;;10.90;94.70;;;;;;5030049;28;20462;-71
2022/03/19 12:01:13;;;;;;;4.70;3.90;;;10.80;94.40;;;;;;5028855;28;20546;-69
2022/03/19 12:04:16;;;;;;;7.20;3.97;;;10.80;94.60;;;;;;5028753;28;20475;-70
2022/03/19 12:06:56;;;;;;;4.87;3.60;;;10.80;94.20;;;;;;5018323;28;20556;-68
2022/03/19 12:09:32;;;;;;;8.77;4.00;;;10.80;94.00;;;;;;5007798;28;20455;-71
2022/03/19 12:12:06;;;;;;;5.23;3.60;;;10.80;93.80;;;;;;5025690;28;20485;-73
2022/03/19 12:14:36;;;;;;;3.03;2.73;;;10.80;93.20;;;;;;5026611;28;20463;-69
2022/03/19 12:17:34;;;;;;;5.50;2.63;;;10.90;93.20;;;;;;5039308;28;20490;-70
2022/03/19 12:20:03;;;;;;;6.20;2.40;;;11.00;93.10;;;;;;5017596;28;20455;-67
2022/03/19 12:22:35;;;;;;;3.13;1.90;;;10.90;92.40;;;;;;5026352;28;20566;-69
2022/03/19 12:25:18;;;;;;;3.33;2.10;;;10.90;91.90;;;;;;5034970;28;20557;-73
2022/03/19 12:27:55;;;;;;;2.43;1.83;;;10.90;91.30;;;;;;5022028;28;20489;-69
2022/03/19 12:30:22;;;;;;;4.90;2.50;;;10.90;91.40;;;;;;5031147;28;20460;-68
2022/03/19 12:32:54;;;;;;;2.33;2.13;;;10.90;91.30;;;;;;5033205;28;20452;-69
2022/03/19 12:35:21;;;;;;;2.83;2.60;;;11.00;91.10;;;;;;5033450;28;21000;-69
2022/03/19 12:37:53;;;;;;;2.13;1.90;;;11.00;90.70;;;;;;5041247;28;20459;-68
2022/03/19 12:43:15;;;;;;;1.73;1.60;;;11.00;89.90;;;;;;5022066;28;20844;-69
2022/03/19 12:45:46;;;;;;;1.50;1.40;;;11.00;88.70;;;;;;5026306;28;20483;-69
2022/03/19 12:48:16;;;;;;;2.33;1.77;;;11.10;88.00;;;;;;5028058;28;20460;-71
2022/03/19 12:50:56;;;;;;;1.30;1.20;;;11.10;88.80;;;;;;5033145;28;20516;-69
2022/03/19 12:53:31;;;;;;;2.67;1.67;;;11.10;87.50;;;;;;5025949;28;20459;-72
2022/03/19 12:56:19;;;;;;;2.47;1.63;;;11.10;87.60;;;;;;5027570;28;20481;-73
2022/03/19 12:58:51;;;;;;;2.57;1.60;;;11.20;87.50;;;;;;5027956;28;20443;-70
2022/03/19 13:01:22;;;;;;;1.60;1.50;;;11.20;85.50;;;;;;5030040;28;20466;-68
2022/03/19 13:03:56;;;;;;;1.87;1.77;;;11.20;83.60;;;;;;5028421;28;21039;-72
2022/03/19 13:06:36;;;;;;;3.97;1.60;;;11.20;84.40;;;;;;5021208;28;20534;-68
2022/03/19 13:09:04;;;;;;;1.83;1.27;;;11.10;83.60;;;;;;5018289;28;20464;-71
2022/03/19 13:11:47;;;;;;;1.80;1.40;;;11.10;83.90;;;;;;5027135;28;20460;-70
2022/03/19 13:14:14;;;;;;;3.10;1.63;;;11.10;82.90;;;;;;5028782;28;20552;-70
2022/03/19 13:16:47;;;;;;;1.53;1.37;;;11.10;83.20;;;;;;5025241;28;20505;-72
2022/03/19 13:19:14;;;;;;;4.43;2.00;;;11.10;83.20;;;;;;5014979;28;20462;-68
2022/03/19 13:21:45;;;;;;;2.87;2.20;;;11.00;81.60;;;;;;5029839;28;20451;-69